createdAt,value
2022-08-11T00:00:36.484Z,19.06
2022-08-11T00:02:39.094Z,19.10
2022-08-11T00:04:39.407Z,19.14
2022-08-11T00:06:39.256Z,19.14
2022-08-11T00:08:38.675Z,19.17
2022-08-11T00:10:39.480Z,19.13
2022-08-11T00:12:37.947Z,19.13
2022-08-11T00:14:37.337Z,19.22
2022-08-11T00:16:36.527Z,19.20
2022-08-11T00:18:42.681Z,19.15
2022-08-11T00:20:45.291Z,19.13
2022-08-11T00:22:46.080Z,19.14
2022-08-11T00:24:53.663Z,19.13
2022-08-11T00:26:55.807Z,19.10
2022-08-11T00:28:54.603Z,19.03
2022-08-11T00:30:53.819Z,19.06
2022-08-11T00:32:58.789Z,19.10
2022-08-11T00:35:55.216Z,19.10
2022-08-11T00:37:21.776Z,19.09
2022-08-11T00:39:28.572Z,19.02
2022-08-11T00:41:35.680Z,18.94
2022-08-11T00:44:03.062Z,18.84
2022-08-11T00:46:15.365Z,18.77
2022-08-11T00:48:27.886Z,18.70
2022-08-11T00:50:38.938Z,18.71
2022-08-11T00:53:00.446Z,18.74
2022-08-11T00:55:34.046Z,18.79
2022-08-11T00:58:21.880Z,18.71
2022-08-11T01:00:23.297Z,18.71
2022-08-11T01:02:40.243Z,18.67
2022-08-11T01:05:16.937Z,18.66
2022-08-11T01:08:01.905Z,18.48
2022-08-11T01:10:15.214Z,18.47
2022-08-11T01:12:30.680Z,18.41
2022-08-11T01:15:21.777Z,18.38
2022-08-11T01:18:10.583Z,18.53
2022-08-11T01:20:46.241Z,18.60
2022-08-11T01:23:09.315Z,18.51
2022-08-11T01:26:02.695Z,18.49
2022-08-11T01:28:42.990Z,18.42
2022-08-11T01:31:26.016Z,18.41
2022-08-11T01:34:06.399Z,18.37
2022-08-11T01:36:34.335Z,18.37
2022-08-11T01:39:12.371Z,18.31
2022-08-11T01:42:01.802Z,18.30
2022-08-11T01:44:34.821Z,18.26
2022-08-11T01:46:37.291Z,18.32
2022-08-11T01:48:43.965Z,18.31
2022-08-11T01:50:55.146Z,18.33
2022-08-11T01:53:06.342Z,18.30
2022-08-11T01:55:13.903Z,18.22
2022-08-11T01:57:26.054Z,18.35
2022-08-11T01:59:28.810Z,18.33
2022-08-11T02:01:41.015Z,18.33
2022-08-11T02:03:51.376Z,18.24
2022-08-11T02:06:01.658Z,18.22
2022-08-11T02:08:11.857Z,18.25
2022-08-11T02:10:42.569Z,18.25
2022-08-11T02:12:54.283Z,18.27
2022-08-11T02:15:05.817Z,18.17
2022-08-11T02:17:16.650Z,18.00
2022-08-11T02:19:45.442Z,17.93
2022-08-11T02:22:20.129Z,17.93
2022-08-11T02:24:29.415Z,17.95
2022-08-11T02:26:36.632Z,18.05
2022-08-11T02:28:50.793Z,18.02
2022-08-11T02:32:14.841Z,18.08
2022-08-11T02:33:38.049Z,18.00
2022-08-11T02:35:47.965Z,17.97
2022-08-11T02:37:55.990Z,17.92
2022-08-11T02:40:11.890Z,17.76
2022-08-11T02:42:32.892Z,17.82
2022-08-11T02:44:43.227Z,17.72
2022-08-11T02:46:52.837Z,17.75
2022-08-11T02:49:35.660Z,17.79
2022-08-11T02:51:41.337Z,17.85
2022-08-11T02:53:56.381Z,17.79
2022-08-11T02:56:08.910Z,17.82
2022-08-11T02:58:16.431Z,17.76
2022-08-11T03:00:18.769Z,17.73
2022-08-11T03:02:41.335Z,17.74
2022-08-11T03:05:02.389Z,17.77
2022-08-11T03:07:28.855Z,17.74
2022-08-11T03:09:41.786Z,17.79
2022-08-11T03:12:24.752Z,17.67
2022-08-11T03:14:46.161Z,17.53
2022-08-11T03:16:53.015Z,17.59
2022-08-11T03:19:04.548Z,17.55
2022-08-11T03:21:11.447Z,17.54
2022-08-11T03:23:20.636Z,17.46
2022-08-11T03:25:31.757Z,17.46
2022-08-11T03:27:52.203Z,17.45
2022-08-11T03:30:06.515Z,17.48
2022-08-11T03:32:12.487Z,17.34
2022-08-11T03:34:15.985Z,17.37
2022-08-11T03:36:29.788Z,17.39
2022-08-11T03:38:46.782Z,17.41
2022-08-11T03:42:01.514Z,17.44
2022-08-11T03:43:58.770Z,17.53
2022-08-11T03:46:05.090Z,17.56
2022-08-11T03:48:15.455Z,17.54
2022-08-11T03:50:28.677Z,17.58
2022-08-11T03:52:39.435Z,17.59
2022-08-11T03:54:49.206Z,17.74
2022-08-11T03:57:37.003Z,18.19
2022-08-11T04:00:12.877Z,18.31
2022-08-11T04:02:30.165Z,19.08
2022-08-11T04:05:00.881Z,19.84
2022-08-11T04:07:43.088Z,20.27
2022-08-11T04:10:04.110Z,20.71
2022-08-11T04:12:36.751Z,20.81
2022-08-11T04:15:08.003Z,20.97
2022-08-11T04:17:33.151Z,21.00
2022-08-11T04:20:15.491Z,21.36
2022-08-11T04:22:54.378Z,21.43
2022-08-11T04:25:16.885Z,21.54
2022-08-11T04:28:05.409Z,21.50
2022-08-11T04:30:12.144Z,21.43
2022-08-11T04:32:30.010Z,21.59
2022-08-11T04:34:45.862Z,21.63
2022-08-11T04:37:30.823Z,21.72
2022-08-11T04:39:44.991Z,21.61
2022-08-11T04:42:53.564Z,22.03
2022-08-11T04:45:42.486Z,22.64
2022-08-11T04:48:33.394Z,23.28
2022-08-11T04:51:17.030Z,23.22
2022-08-11T04:53:53.321Z,23.61
2022-08-11T04:56:26.519Z,23.84
2022-08-11T04:59:02.799Z,23.65
2022-08-11T05:01:37.833Z,23.25
2022-08-11T05:04:31.851Z,22.99
2022-08-11T05:06:58.161Z,23.31
2022-08-11T05:09:24.142Z,23.38
2022-08-11T05:11:49.551Z,23.09
2022-08-11T05:14:08.660Z,22.55
2022-08-11T05:16:30.643Z,22.73
2022-08-11T05:18:48.506Z,22.33
2022-08-11T05:21:09.686Z,21.79
2022-08-11T05:23:29.018Z,22.19
2022-08-11T05:26:43.961Z,22.24
2022-08-11T05:28:30.174Z,22.47
2022-08-11T05:30:47.864Z,22.23
2022-08-11T05:33:14.390Z,22.17
2022-08-11T05:35:18.498Z,22.29
2022-08-11T05:37:39.899Z,22.24
2022-08-11T05:40:05.645Z,22.58
2022-08-11T05:42:30.384Z,22.64
2022-08-11T05:44:49.538Z,22.91
2022-08-11T05:47:06.727Z,22.99
2022-08-11T05:49:29.001Z,22.89
2022-08-11T05:51:55.138Z,22.88
2022-08-11T05:54:28.502Z,23.07
2022-08-11T05:56:28.438Z,22.94
2022-08-11T05:58:28.654Z,22.92
2022-08-11T06:00:28.670Z,23.07
2022-08-11T06:02:28.791Z,22.97
2022-08-11T06:04:30.784Z,23.28
2022-08-11T06:06:30.875Z,23.40
2022-08-11T06:08:31.436Z,23.82
2022-08-11T06:10:34.781Z,23.61
2022-08-11T06:12:37.675Z,23.66
2022-08-11T06:14:44.757Z,23.69
2022-08-11T06:16:44.843Z,24.10
2022-08-11T06:18:47.941Z,23.59
2022-08-11T06:20:54.248Z,23.27
2022-08-11T06:23:03.880Z,22.96
2022-08-11T06:25:03.886Z,23.08
2022-08-11T06:27:12.265Z,22.97
2022-08-11T06:29:16.105Z,23.11
2022-08-11T06:31:18.119Z,23.31
2022-08-11T06:33:20.257Z,23.22
2022-08-11T06:35:24.765Z,23.19
2022-08-11T06:37:36.666Z,23.31
2022-08-11T06:39:49.862Z,23.37
2022-08-11T06:41:53.382Z,23.58
2022-08-11T06:44:05.241Z,23.69
2022-08-11T06:46:09.731Z,23.60
2022-08-11T06:48:16.771Z,23.51
2022-08-11T06:50:37.186Z,23.52
2022-08-11T06:52:40.104Z,23.90
2022-08-11T06:54:41.834Z,24.18
2022-08-11T06:57:28.328Z,24.72
2022-08-11T06:59:37.210Z,24.73
2022-08-11T07:01:46.775Z,24.93
2022-08-11T07:03:49.718Z,25.10
2022-08-11T07:05:53.189Z,25.50
2022-08-11T07:08:44.344Z,25.62
2022-08-11T07:11:36.388Z,25.68
2022-08-11T07:14:12.763Z,25.88
2022-08-11T07:17:24.309Z,25.02
2022-08-11T07:20:36.158Z,24.67
2022-08-11T07:23:14.861Z,25.14
2022-08-11T07:25:43.455Z,24.89
2022-08-11T07:28:02.724Z,24.74
2022-08-11T07:30:03.879Z,24.98
2022-08-11T07:32:10.417Z,25.20
2022-08-11T07:34:21.512Z,25.79
2022-08-11T07:36:21.563Z,25.67
2022-08-11T07:38:43.453Z,25.87
2022-08-11T07:40:47.802Z,25.48
2022-08-11T07:43:05.547Z,26.17
2022-08-11T07:45:26.479Z,26.38
2022-08-11T07:47:43.289Z,26.43
2022-08-11T07:50:02.465Z,27.25
2022-08-11T07:52:18.474Z,27.49
2022-08-11T07:54:17.507Z,27.58
2022-08-11T07:56:21.857Z,28.60
2022-08-11T07:59:04.302Z,28.34
2022-08-11T08:01:24.974Z,28.43
2022-08-11T08:03:54.723Z,28.62
2022-08-11T08:06:22.234Z,28.65
2022-08-11T08:08:47.426Z,28.91
2022-08-11T08:11:03.247Z,28.65
2022-08-11T08:13:20.744Z,27.25
2022-08-11T08:15:38.593Z,28.06
2022-08-11T08:18:20.825Z,27.67
2022-08-11T08:20:17.534Z,27.61
2022-08-11T08:22:37.877Z,27.84
2022-08-11T08:24:36.746Z,28.42
2022-08-11T08:26:53.074Z,28.96
2022-08-11T08:28:53.535Z,28.62
2022-08-11T08:30:52.621Z,27.82
2022-08-11T08:32:52.800Z,27.52
2022-08-11T08:34:52.050Z,27.79
2022-08-11T08:36:52.762Z,28.07
2022-08-11T08:38:54.212Z,27.57
2022-08-11T08:40:55.914Z,28.60
2022-08-11T08:42:57.906Z,28.46
2022-08-11T08:45:03.472Z,29.59
2022-08-11T08:47:07.220Z,29.79
2022-08-11T08:49:06.914Z,30.23
2022-08-11T08:51:28.841Z,31.75
2022-08-11T08:53:53.301Z,32.73
2022-08-11T08:55:59.572Z,32.49
2022-08-11T08:58:00.758Z,32.07
2022-08-11T09:00:02.506Z,32.29
2022-08-11T09:02:06.462Z,31.96
2022-08-11T09:04:11.786Z,33.70
2022-08-11T09:06:12.838Z,33.66
2022-08-11T09:08:12.101Z,32.88
2022-08-11T09:10:11.968Z,32.82
2022-08-11T09:12:11.258Z,33.33
2022-08-11T09:14:14.815Z,33.05
2022-08-11T09:16:18.131Z,33.88
2022-08-11T09:18:19.465Z,33.12
2022-08-11T09:20:20.865Z,33.19
2022-08-11T09:22:38.943Z,32.74
2022-08-11T09:25:02.614Z,33.06
2022-08-11T09:27:07.496Z,33.36
2022-08-11T09:29:06.719Z,34.09
2022-08-11T09:31:07.682Z,33.66
2022-08-11T09:33:08.457Z,33.46
2022-08-11T09:35:11.313Z,34.67
2022-08-11T09:37:55.253Z,35.34
2022-08-11T09:40:05.231Z,35.03
2022-08-11T09:42:05.641Z,33.47
2022-08-11T09:44:22.316Z,32.53
2022-08-11T09:46:28.709Z,32.49
2022-08-11T09:48:31.532Z,33.15
2022-08-11T09:50:30.265Z,34.00
2022-08-11T09:52:33.529Z,34.48
2022-08-11T09:54:32.029Z,35.12
2022-08-11T09:57:05.384Z,35.71
2022-08-11T09:59:04.536Z,35.76
2022-08-11T10:01:05.451Z,35.70
2022-08-11T10:03:07.437Z,35.33
2022-08-11T10:05:27.076Z,34.72
2022-08-11T10:07:27.036Z,35.82
2022-08-11T10:09:26.954Z,36.41
2022-08-11T10:11:26.371Z,36.21
2022-08-11T10:14:04.837Z,36.05
2022-08-11T10:16:00.199Z,36.24
2022-08-11T10:18:35.220Z,35.74
2022-08-11T10:20:38.371Z,36.40
2022-08-11T10:22:54.664Z,36.66
2022-08-11T10:25:11.630Z,35.55
2022-08-11T10:27:10.178Z,34.92
2022-08-11T10:29:26.202Z,34.57
2022-08-11T10:31:57.676Z,33.67
2022-08-11T10:34:03.483Z,33.57
2022-08-11T10:36:15.914Z,33.95
2022-08-11T10:38:15.936Z,34.39
2022-08-11T10:40:17.487Z,33.25
2022-08-11T10:42:55.277Z,33.09
2022-08-11T10:44:54.561Z,34.04
2022-08-11T10:47:11.625Z,34.39
2022-08-11T10:49:11.080Z,34.29
2022-08-11T10:51:42.800Z,34.55
2022-08-11T10:53:54.707Z,34.18
2022-08-11T10:56:10.443Z,34.07
2022-08-11T10:58:27.515Z,32.65
2022-08-11T11:00:26.005Z,31.61
2022-08-11T11:02:27.457Z,31.71
2022-08-11T11:04:34.243Z,31.41
2022-08-11T11:06:45.050Z,30.91
2022-08-11T11:08:55.539Z,29.96
2022-08-11T11:11:00.120Z,29.77
2022-08-11T11:13:17.817Z,29.44
2022-08-11T11:15:37.270Z,29.74
2022-08-11T11:18:01.749Z,29.26
2022-08-11T11:20:01.921Z,28.18
2022-08-11T11:22:22.155Z,28.52
2022-08-11T11:24:37.693Z,28.91
2022-08-11T11:26:42.473Z,28.95
2022-08-11T11:29:06.948Z,29.33
2022-08-11T11:31:15.610Z,28.40
2022-08-11T11:33:22.360Z,28.70
2022-08-11T11:35:36.712Z,28.97
2022-08-11T11:37:38.147Z,29.19
2022-08-11T11:39:37.847Z,29.59
2022-08-11T11:41:37.285Z,29.91
2022-08-11T11:43:37.709Z,29.27
2022-08-11T11:45:36.507Z,29.41
2022-08-11T11:47:37.066Z,28.87
2022-08-11T11:49:39.645Z,28.24
2022-08-11T11:51:38.849Z,28.65
2022-08-11T11:53:38.657Z,28.71
2022-08-11T11:55:38.156Z,28.87
2022-08-11T11:57:58.642Z,29.03
2022-08-11T12:00:16.109Z,29.66
2022-08-11T12:02:16.251Z,29.46
2022-08-11T12:04:16.652Z,28.69
2022-08-11T12:06:15.703Z,28.49
2022-08-11T12:08:15.411Z,28.01
2022-08-11T12:10:16.105Z,27.78
2022-08-11T12:12:32.286Z,27.65
2022-08-11T12:14:32.090Z,27.30
2022-08-11T12:16:36.134Z,27.11
2022-08-11T12:18:36.422Z,26.81
2022-08-11T12:20:35.295Z,26.83
2022-08-11T12:22:51.278Z,26.72
2022-08-11T12:25:07.849Z,26.60
2022-08-11T12:27:27.993Z,26.29
2022-08-11T12:29:28.772Z,26.17
2022-08-11T12:31:27.496Z,26.21
2022-08-11T12:33:25.964Z,26.19
2022-08-11T12:35:24.505Z,26.15
2022-08-11T12:37:30.414Z,26.17
2022-08-11T12:40:15.623Z,26.15
2022-08-11T12:42:30.766Z,26.21
2022-08-11T12:45:01.408Z,26.00
2022-08-11T12:47:02.823Z,25.74
2022-08-11T12:49:24.193Z,25.56
2022-08-11T12:52:11.693Z,25.43
2022-08-11T12:54:10.252Z,24.84
2022-08-11T12:56:26.870Z,24.78
2022-08-11T12:58:26.802Z,24.89
2022-08-11T13:00:45.494Z,25.16
2022-08-11T13:03:01.425Z,25.41
2022-08-11T13:05:00.446Z,25.45
2022-08-11T13:06:58.811Z,25.57
2022-08-11T13:09:01.412Z,25.39
2022-08-11T13:11:19.438Z,25.35
2022-08-11T13:13:54.454Z,25.05
2022-08-11T13:15:39.872Z,25.06
2022-08-11T13:17:40.478Z,25.07
2022-08-11T13:19:49.646Z,25.15
2022-08-11T13:21:48.944Z,25.07
2022-08-11T13:23:59.488Z,25.13
2022-08-11T13:26:02.769Z,25.31
2022-08-11T13:28:03.244Z,25.29
2022-08-11T13:30:19.850Z,25.22
2022-08-11T13:32:26.351Z,25.15
2022-08-11T13:34:27.026Z,25.33
2022-08-11T13:36:28.598Z,25.39
2022-08-11T13:38:27.824Z,25.40
2022-08-11T13:40:45.851Z,25.54
2022-08-11T13:42:46.020Z,25.49
2022-08-11T13:44:45.188Z,25.30
2022-08-11T13:46:44.784Z,25.31
2022-08-11T13:48:44.787Z,25.37
2022-08-11T13:51:00.917Z,25.31
2022-08-11T13:52:59.459Z,25.44
2022-08-11T13:54:58.591Z,25.47
2022-08-11T13:57:01.667Z,25.46
2022-08-11T13:59:02.419Z,25.34
2022-08-11T14:01:11.288Z,25.44
2022-08-11T14:03:24.719Z,25.53
2022-08-11T14:05:29.638Z,25.45
2022-08-11T14:07:35.874Z,25.46
2022-08-11T14:09:38.074Z,25.52
2022-08-11T14:12:22.437Z,25.52
2022-08-11T14:14:22.209Z,25.46
2022-08-11T14:16:28.429Z,25.47
2022-08-11T14:18:31.657Z,25.49
2022-08-11T14:20:54.100Z,25.49
2022-08-11T14:22:52.979Z,25.50
2022-08-11T14:24:51.518Z,25.49
2022-08-11T14:26:51.424Z,25.54
2022-08-11T14:28:51.016Z,25.54
2022-08-11T14:31:01.450Z,25.51
2022-08-11T14:33:00.644Z,25.52
2022-08-11T14:35:15.146Z,25.41
2022-08-11T14:37:19.990Z,25.45
2022-08-11T14:39:20.847Z,25.37
2022-08-11T14:41:37.493Z,25.43
2022-08-11T14:44:15.562Z,25.51
2022-08-11T14:48:38.048Z,25.59
2022-08-11T14:50:37.108Z,25.65
2022-08-11T14:52:37.526Z,25.69
2022-08-11T14:54:54.876Z,25.72
2022-08-11T14:56:56.786Z,25.79
2022-08-11T14:58:58.283Z,25.69
2022-08-11T15:00:59.418Z,25.73
2022-08-11T15:03:13.473Z,25.71
2022-08-11T15:05:12.785Z,25.55
2022-08-11T15:07:16.763Z,25.58
2022-08-11T15:09:18.257Z,25.57
2022-08-11T15:11:39.492Z,25.54
2022-08-11T15:13:39.093Z,25.32
2022-08-11T15:15:55.652Z,25.24
2022-08-11T15:17:55.844Z,25.27
2022-08-11T15:20:13.530Z,25.21
2022-08-11T15:22:29.524Z,25.15
2022-08-11T15:24:31.039Z,25.03
2022-08-11T15:26:52.078Z,25.06
2022-08-11T15:29:11.179Z,25.02
2022-08-11T15:31:38.600Z,25.10
2022-08-11T15:33:57.351Z,25.17
2022-08-11T15:36:15.558Z,25.14
2022-08-11T15:38:16.613Z,24.97
2022-08-11T15:40:37.325Z,24.99
2022-08-11T15:43:07.100Z,24.89
2022-08-11T15:45:29.656Z,24.87
2022-08-11T15:47:35.991Z,24.79
2022-08-11T15:50:10.760Z,24.74
2022-08-11T15:52:02.846Z,24.77
2022-08-11T15:54:09.372Z,24.73
2022-08-11T15:56:11.697Z,24.63
2022-08-11T15:58:30.070Z,24.60
2022-08-11T16:00:47.530Z,24.63
2022-08-11T16:03:04.870Z,24.55
2022-08-11T16:05:09.547Z,24.44
2022-08-11T16:11:12.758Z,24.35
2022-08-11T16:13:31.596Z,24.36
2022-08-11T16:15:48.814Z,24.39
2022-08-11T16:17:50.105Z,24.37
2022-08-11T16:19:52.364Z,24.36
2022-08-11T16:21:53.984Z,24.38
2022-08-11T16:23:54.586Z,24.40
2022-08-11T16:27:02.421Z,24.40
2022-08-11T16:28:17.205Z,24.39
2022-08-11T16:30:15.955Z,24.35
2022-08-11T16:32:20.732Z,24.40
2022-08-11T16:34:32.831Z,24.43
2022-08-11T16:36:49.965Z,24.38
2022-08-11T16:38:50.602Z,24.36
2022-08-11T16:40:52.248Z,24.35
2022-08-11T16:43:10.628Z,24.39
2022-08-11T16:45:29.490Z,24.40
2022-08-11T16:48:03.380Z,24.28
2022-08-11T16:49:52.610Z,24.19
2022-08-11T16:51:51.860Z,24.19
2022-08-11T16:54:04.473Z,24.22
2022-08-11T16:56:09.152Z,24.14
2022-08-11T16:58:26.702Z,24.15
2022-08-11T17:00:29.971Z,24.11
2022-08-11T17:02:51.514Z,24.07
2022-08-11T17:05:12.576Z,23.94
2022-08-11T17:07:42.092Z,24.02
2022-08-11T17:09:58.714Z,24.03
2022-08-11T17:12:16.797Z,23.94
2022-08-11T17:14:18.623Z,23.92
2022-08-11T17:16:40.150Z,23.88
2022-08-11T17:18:45.511Z,23.86
2022-08-11T17:20:44.374Z,23.84
2022-08-11T17:23:15.643Z,23.85
2022-08-11T17:25:17.144Z,23.83
2022-08-11T17:27:17.966Z,23.77
2022-08-11T17:29:16.527Z,23.79
2022-08-11T17:31:33.923Z,23.74
2022-08-11T17:33:52.993Z,23.76
2022-08-11T17:35:51.625Z,23.71
2022-08-11T17:37:51.455Z,23.75
2022-08-11T17:39:51.831Z,23.67
2022-08-11T17:42:09.261Z,23.71
2022-08-11T17:44:28.294Z,23.62
2022-08-11T17:47:05.154Z,23.59
2022-08-11T17:49:08.790Z,23.56
2022-08-11T17:51:13.168Z,23.54
2022-08-11T17:53:31.288Z,23.45
2022-08-11T17:55:52.040Z,23.36
2022-08-11T17:58:09.731Z,23.31
2022-08-11T18:00:10.199Z,23.30
2022-08-11T18:02:34.937Z,23.26
2022-08-11T18:04:35.374Z,23.21
2022-08-11T18:06:36.186Z,23.26
2022-08-11T18:08:56.709Z,23.22
2022-08-11T18:11:17.479Z,23.21
2022-08-11T18:13:53.261Z,23.21
2022-08-11T18:16:09.839Z,23.16
2022-08-11T18:18:25.725Z,23.14
2022-08-11T18:20:45.084Z,23.16
2022-08-11T18:23:06.188Z,23.14
2022-08-11T18:25:27.322Z,23.08
2022-08-11T18:27:46.367Z,23.08
2022-08-11T18:30:04.362Z,23.02
2022-08-11T18:32:27.150Z,23.02
2022-08-11T18:34:53.609Z,23.05
2022-08-11T18:37:24.817Z,23.08
2022-08-11T18:39:46.086Z,22.99
2022-08-11T18:42:13.092Z,22.98
2022-08-11T18:44:48.913Z,22.94
2022-08-11T18:47:08.594Z,22.88
2022-08-11T18:50:02.619Z,22.81
2022-08-11T18:52:12.355Z,22.81
2022-08-11T18:54:30.303Z,22.78
2022-08-11T18:56:51.788Z,22.72
2022-08-11T18:59:08.942Z,22.69
2022-08-11T19:01:28.600Z,22.64
2022-08-11T19:03:49.286Z,22.65
2022-08-11T19:06:38.233Z,22.54
2022-08-11T19:08:47.025Z,22.50
2022-08-11T19:11:04.481Z,22.44
2022-08-11T19:13:21.006Z,22.42
2022-08-11T19:15:38.205Z,22.40
2022-08-11T19:17:57.187Z,22.36
2022-08-11T19:20:13.951Z,22.37
2022-08-11T19:22:29.866Z,22.34
2022-08-11T19:24:49.630Z,22.32
2022-08-11T19:27:06.964Z,22.31
2022-08-11T19:30:07.056Z,22.26
2022-08-11T19:32:01.633Z,22.29
2022-08-11T19:34:18.946Z,22.29
2022-08-11T19:36:35.486Z,22.28
2022-08-11T19:38:53.382Z,22.30
2022-08-11T19:41:12.575Z,22.19
2022-08-11T19:43:31.602Z,22.13
2022-08-11T19:45:52.710Z,22.20
2022-08-11T19:48:32.685Z,22.15
2022-08-11T19:50:46.530Z,22.10
2022-08-11T19:53:02.967Z,22.12
2022-08-11T19:55:34.977Z,22.12
2022-08-11T19:57:55.087Z,22.08
2022-08-11T20:00:11.691Z,22.13
2022-08-11T20:02:28.216Z,22.04
2022-08-11T20:04:44.154Z,22.03
2022-08-11T20:07:02.324Z,21.95
2022-08-11T20:09:20.280Z,21.89
2022-08-11T20:11:36.851Z,21.99
2022-08-11T20:13:56.155Z,21.99
2022-08-11T20:16:13.545Z,22.12
2022-08-11T20:18:32.428Z,22.13
2022-08-11T20:20:50.070Z,22.16
2022-08-11T20:23:08.258Z,22.12
2022-08-11T20:25:25.722Z,22.13
2022-08-11T20:27:42.465Z,22.06
2022-08-11T20:30:00.091Z,22.01
2022-08-11T20:32:16.056Z,21.93
2022-08-11T20:34:34.613Z,21.91
2022-08-11T20:36:54.061Z,21.92
2022-08-11T20:39:11.493Z,21.94
2022-08-11T20:41:30.613Z,21.95
2022-08-11T20:44:06.362Z,22.01
2022-08-11T20:46:26.406Z,21.98
2022-08-11T20:48:43.291Z,21.81
2022-08-11T20:51:06.042Z,21.81
2022-08-11T20:53:23.653Z,21.91
2022-08-11T20:55:46.172Z,22.02
2022-08-11T20:58:11.220Z,22.04
2022-08-11T21:00:38.947Z,22.08
2022-08-11T21:02:58.043Z,22.11
2022-08-11T21:07:55.296Z,22.07
2022-08-11T21:10:18.701Z,22.04
2022-08-11T21:12:39.181Z,22.06
2022-08-11T21:14:59.004Z,22.06
2022-08-11T21:17:27.250Z,22.06
2022-08-11T21:20:01.377Z,21.98
2022-08-11T21:22:28.132Z,21.90
2022-08-11T21:24:47.143Z,21.86
2022-08-11T21:27:08.265Z,21.79
2022-08-11T21:29:32.889Z,21.65
2022-08-11T21:31:51.358Z,21.54
2022-08-11T21:34:08.465Z,21.47
2022-08-11T21:36:29.445Z,21.48
2022-08-11T21:38:46.576Z,21.39
2022-08-11T21:41:04.925Z,21.38
2022-08-11T21:43:21.908Z,21.30
2022-08-11T21:45:39.552Z,21.27
2022-08-11T21:48:01.046Z,21.26
2022-08-11T21:50:17.568Z,21.18
2022-08-11T21:52:35.038Z,21.20
2022-08-11T21:54:51.008Z,21.08
2022-08-11T21:57:07.588Z,21.12
2022-08-11T21:59:24.623Z,21.04
2022-08-11T22:01:41.012Z,20.97
2022-08-11T22:03:58.184Z,20.89
2022-08-11T22:06:14.631Z,20.94
2022-08-11T22:08:32.192Z,20.83
2022-08-11T22:10:48.204Z,20.85
2022-08-11T22:13:04.096Z,20.86
2022-08-11T22:15:20.054Z,20.83
2022-08-11T22:17:35.318Z,20.85
2022-08-11T22:19:52.797Z,20.78
2022-08-11T22:22:08.699Z,20.76
2022-08-11T22:24:29.931Z,20.84
2022-08-11T22:26:47.620Z,20.80
2022-08-11T22:29:03.347Z,20.84
2022-08-11T22:31:20.276Z,20.88
2022-08-11T22:33:37.700Z,20.85
2022-08-11T22:36:06.686Z,20.92
2022-08-11T22:38:23.124Z,20.92
2022-08-11T22:40:40.653Z,20.88
2022-08-11T22:42:58.234Z,20.90
2022-08-11T22:45:13.912Z,20.84
2022-08-11T22:47:40.445Z,20.88
2022-08-11T22:49:58.640Z,20.89
2022-08-11T22:52:16.660Z,20.80
2022-08-11T22:54:33.122Z,20.75
2022-08-11T22:56:51.550Z,20.73
2022-08-11T22:59:08.068Z,20.74
2022-08-11T23:01:24.527Z,20.85
2022-08-11T23:03:40.650Z,20.84
2022-08-11T23:05:57.339Z,20.81
2022-08-11T23:08:14.437Z,20.84
2022-08-11T23:10:30.486Z,20.88
2022-08-11T23:12:47.752Z,20.76
2022-08-11T23:15:04.358Z,20.82
2022-08-11T23:17:20.666Z,20.76
2022-08-11T23:20:07.836Z,20.69
2022-08-11T23:22:13.666Z,20.80
2022-08-11T23:24:29.711Z,20.75
2022-08-11T23:26:48.089Z,20.82
2022-08-11T23:29:06.264Z,20.83
2022-08-11T23:31:22.462Z,20.79
2022-08-11T23:33:41.068Z,20.77
2022-08-11T23:36:04.449Z,20.82
2022-08-11T23:38:20.939Z,20.81
2022-08-11T23:40:36.915Z,20.71
2022-08-11T23:42:56.550Z,20.79
2022-08-11T23:45:14.023Z,20.77
2022-08-11T23:47:30.022Z,20.78
2022-08-11T23:49:46.803Z,20.74
2022-08-11T23:52:02.854Z,20.75
2022-08-11T23:54:19.657Z,20.73
2022-08-11T23:56:35.709Z,20.58
2022-08-11T23:58:53.122Z,20.58
